createdAt,value
2023-02-14T00:21:15.995Z,28.5
2023-02-14T00:51:15.746Z,29
2023-02-14T01:21:22.539Z,31
2023-02-14T01:51:16.848Z,30.4
2023-02-14T02:21:31.579Z,32.2
2023-02-14T02:51:34.533Z,32.5
2023-02-14T03:21:22.404Z,27.4
2023-02-14T03:51:19.971Z,27.6
2023-02-14T04:21:18.912Z,25.4
2023-02-14T04:51:18.731Z,25.6
2023-02-14T05:21:16.940Z,24.3
2023-02-14T05:51:17.032Z,23.4
2023-02-14T06:21:15.371Z,18.7
2023-02-14T06:51:15.666Z,19.6
2023-02-14T07:21:18.528Z,20.4
2023-02-14T07:51:14.886Z,22.1
2023-02-14T08:21:16.945Z,22.3
2023-02-14T08:51:16.988Z,21.7
2023-02-14T09:21:16.601Z,25.7
2023-02-14T09:51:17.075Z,26.8
2023-02-14T10:21:20.787Z,29.7
2023-02-14T10:51:19.759Z,36.1
2023-02-14T11:21:20.886Z,39.4
2023-02-14T11:51:21.661Z,41.2
2023-02-14T12:21:36.400Z,41.9
2023-02-14T12:51:26.923Z,39
2023-02-14T13:21:26.037Z,38.3
2023-02-14T13:51:24.789Z,39.5
2023-02-14T14:21:31.028Z,37.4
2023-02-14T14:51:32.143Z,39.5
2023-02-14T15:21:29.510Z,36.9
2023-02-14T15:51:36.154Z,36
2023-02-14T16:21:34.261Z,37.7
2023-02-14T16:51:35.706Z,38.9
2023-02-14T17:21:38.303Z,42.2
2023-02-14T17:51:35.945Z,40.9
2023-02-14T18:21:39.753Z,40.3
2023-02-14T18:51:41.078Z,38.4
2023-02-14T19:21:37.787Z,40.7
2023-02-14T19:51:38.977Z,41.5
2023-02-14T20:21:39.413Z,38.7
2023-02-14T20:51:41.141Z,39.1
2023-02-14T21:21:39.431Z,39.9
2023-02-14T21:51:39.241Z,35.2
2023-02-14T22:21:45.640Z,37.5
2023-02-14T22:51:40.998Z,38.5
2023-02-14T23:21:49.259Z,35.8
2023-02-14T23:51:38.299Z,33.5
